createdAt,value
2019-01-03T00:00:43.629Z,103209.77
2019-01-03T00:03:32.089Z,103219.55
2019-01-03T00:08:59.038Z,103223.08
2019-01-03T00:11:48.014Z,103218.63
2019-01-03T00:14:36.490Z,103221.75
2019-01-03T00:20:20.449Z,103217.30
2019-01-03T00:23:09.196Z,103209.80
2019-01-03T00:25:57.797Z,103215.12
2019-01-03T00:28:47.625Z,103212.45
2019-01-03T00:31:36.094Z,103214.67
2019-01-03T00:37:14.764Z,103212.92
2019-01-03T00:40:03.223Z,103211.14
2019-01-03T00:42:51.948Z,103218.23
2019-01-03T00:45:40.693Z,103216.90
2019-01-03T01:00:19.471Z,103211.58
2019-01-03T01:03:07.948Z,103216.44
2019-01-03T01:05:56.766Z,103212.45
2019-01-03T01:08:45.242Z,103211.55
2019-01-03T01:14:23.859Z,103204.94
2019-01-03T01:17:12.371Z,103206.26
2019-01-03T01:20:01.005Z,103208.03
2019-01-03T01:22:49.776Z,103223.09
2019-01-03T01:25:39.840Z,103231.03
2019-01-03T01:28:28.598Z,103226.59
2019-01-03T01:31:17.249Z,103223.92
2019-01-03T01:37:02.008Z,103222.59
2019-01-03T01:42:31.334Z,103220.39
2019-01-03T02:00:10.056Z,103197.77
2019-01-03T02:02:58.829Z,103200.86
2019-01-03T02:05:48.228Z,103201.29
2019-01-03T02:11:32.338Z,103203.52
2019-01-03T02:14:21.944Z,103192.47
2019-01-03T02:17:10.753Z,103198.63
2019-01-03T02:19:59.229Z,103199.98
2019-01-03T02:22:48.225Z,103195.11
2019-01-03T02:25:36.949Z,103200.41
2019-01-03T02:31:04.161Z,103212.78
2019-01-03T02:33:52.938Z,103214.98
2019-01-03T02:39:21.869Z,103212.78
2019-01-03T02:42:10.578Z,103221.20
2019-01-03T02:50:34.167Z,103224.73
2019-01-03T02:53:22.919Z,103222.97
2019-01-03T02:56:13.073Z,103217.20
2019-01-03T02:59:01.840Z,103217.23
2019-01-03T03:01:50.308Z,103215.02
2019-01-03T03:04:38.963Z,103215.44
2019-01-03T03:07:27.700Z,103213.66
2019-01-03T03:12:55.167Z,103211.89
2019-01-03T03:15:39.248Z,103195.06
2019-01-03T03:18:48.946Z,103197.73
2019-01-03T03:21:37.383Z,103197.73
2019-01-03T03:24:26.098Z,103191.95
2019-01-03T03:27:14.554Z,103191.98
2019-01-03T03:32:44.125Z,103197.27
2019-01-03T03:38:28.395Z,103199.91
2019-01-03T03:41:16.995Z,103194.16
2019-01-03T03:46:48.511Z,103193.25
2019-01-03T03:49:37.413Z,103188.36
2019-01-03T03:52:26.170Z,103173.74
2019-01-03T03:55:14.639Z,103170.66
2019-01-03T04:19:01.766Z,103162.67
2019-01-03T04:21:50.346Z,103157.38
2019-01-03T04:24:39.114Z,103156.47
2019-01-03T04:30:19.247Z,103148.92
2019-01-03T04:33:07.938Z,103161.31
2019-01-03T04:35:56.419Z,103163.49
2019-01-03T04:38:45.103Z,103167.02
2019-01-03T04:41:33.800Z,103164.38
2019-01-03T04:44:22.523Z,103158.13
2019-01-03T04:47:11.197Z,103160.78
2019-01-03T04:50:00.698Z,103158.56
2019-01-03T04:52:49.518Z,103153.67
2019-01-03T04:55:38.231Z,103162.07
2019-01-03T04:58:47.843Z,103159.41
2019-01-03T05:02:15.051Z,103165.61
2019-01-03T05:05:03.574Z,103158.50
2019-01-03T05:07:52.314Z,103158.07
2019-01-03T05:10:41.079Z,103173.56
2019-01-03T05:13:29.530Z,103158.91
2019-01-03T05:16:18.539Z,103166.44
2019-01-03T05:19:07.269Z,103157.56
2019-01-03T05:21:56.064Z,103153.58
2019-01-03T05:24:44.609Z,103165.08
2019-01-03T05:27:33.623Z,103163.75
2019-01-03T05:30:24.266Z,103167.27
2019-01-03T05:33:12.722Z,103165.92
2019-01-03T05:36:03.129Z,103167.23
2019-01-03T05:56:31.312Z,103159.23
2019-01-03T05:59:19.787Z,103159.58
2019-01-03T06:02:08.297Z,103155.55
2019-01-03T06:10:42.399Z,103170.63
2019-01-03T06:13:31.094Z,103164.41
2019-01-03T06:19:01.911Z,103168.81
2019-01-03T06:21:50.689Z,103167.84
2019-01-03T06:27:40.603Z,103166.81
2019-01-03T06:30:29.481Z,103163.19
2019-01-03T06:33:18.254Z,103161.91
2019-01-03T06:36:06.705Z,103157.97
2019-01-03T06:38:55.466Z,103156.18
2019-01-03T06:41:44.225Z,103162.83
2019-01-03T06:44:33.372Z,103171.27
2019-01-03T06:47:22.818Z,103173.08
2019-01-03T06:50:24.385Z,103180.23
2019-01-03T06:53:25.772Z,103181.95
2019-01-03T06:56:12.397Z,103177.95
2019-01-03T06:58:55.351Z,103172.69
2019-01-03T07:04:59.639Z,103174.02
2019-01-03T07:08:01.595Z,103180.64
2019-01-03T07:10:51.016Z,103182.39
2019-01-03T07:13:40.861Z,103181.50
2019-01-03T07:16:24.572Z,103185.95
2019-01-03T07:19:13.333Z,103182.39
2019-01-03T07:24:42.957Z,103187.73
2019-01-03T07:30:27.657Z,103198.45
2019-01-03T07:36:13.294Z,103213.95
2019-01-03T07:44:38.562Z,103231.03
2019-01-03T07:47:27.027Z,103222.47
2019-01-03T07:56:01.906Z,103225.98
2019-01-03T07:58:50.907Z,103234.06
2019-01-03T08:01:59.000Z,103227.89
2019-01-03T08:04:49.033Z,103227.89
2019-01-03T08:07:37.822Z,103230.08
2019-01-03T08:10:26.583Z,103230.45
2019-01-03T08:13:15.302Z,103234.46
2019-01-03T08:16:04.251Z,103237.92
2019-01-03T08:24:29.902Z,103246.13
2019-01-03T08:27:18.664Z,103243.98
2019-01-03T08:30:07.146Z,103242.28
2019-01-03T08:32:55.970Z,103248.07
2019-01-03T08:38:40.583Z,103250.20
2019-01-03T08:44:19.052Z,103256.33
2019-01-03T08:47:07.785Z,103247.45
2019-01-03T08:53:01.229Z,103250.88
2019-01-03T08:59:17.600Z,103251.58
2019-01-03T09:02:00.940Z,103254.11
2019-01-03T09:07:51.408Z,103251.64
2019-01-03T09:10:52.249Z,103252.25
2019-01-03T09:13:54.125Z,103251.31
2019-01-03T09:16:37.849Z,103246.19
2019-01-03T09:22:35.146Z,103256.42
2019-01-03T09:25:44.836Z,103258.66
2019-01-03T09:28:33.320Z,103251.75
2019-01-03T09:31:22.068Z,103249.36
2019-01-03T09:34:10.913Z,103253.43
2019-01-03T09:36:59.369Z,103263.70
2019-01-03T09:39:47.903Z,103257.98
2019-01-03T09:42:36.591Z,103258.05
2019-01-03T09:45:26.854Z,103262.11
2019-01-03T09:47:56.217Z,103266.98
2019-01-03T09:50:25.743Z,103266.38
2019-01-03T09:52:55.100Z,103260.28
2019-01-03T09:55:24.476Z,103261.16
2019-01-03T09:58:06.043Z,103266.13
2019-01-03T10:00:35.386Z,103266.13
2019-01-03T10:03:04.756Z,103258.62
2019-01-03T10:05:34.117Z,103258.62
2019-01-03T10:08:03.742Z,103251.70
2019-01-03T10:10:33.378Z,103251.38
2019-01-03T10:13:03.259Z,103256.69
2019-01-03T10:15:33.204Z,103246.05
2019-01-03T10:18:23.780Z,103236.66
2019-01-03T10:20:53.121Z,103244.58
2019-01-03T10:23:22.745Z,103235.15
2019-01-03T10:25:52.173Z,103238.42
2019-01-03T10:28:40.923Z,103239.26
2019-01-03T10:31:11.340Z,103235.15
2019-01-03T10:34:00.408Z,103238.69
2019-01-03T10:36:30.360Z,103246.30
2019-01-03T10:38:59.931Z,103247.17
2019-01-03T10:41:30.252Z,103245.33
2019-01-03T10:44:00.094Z,103247.86
2019-01-03T10:46:30.242Z,103241.19
2019-01-03T10:48:59.898Z,103231.80
2019-01-03T10:51:30.341Z,103225.05
2019-01-03T10:54:00.030Z,103225.48
2019-01-03T10:56:30.363Z,103230.78
2019-01-03T10:58:59.908Z,103232.12
2019-01-03T11:01:30.237Z,103235.66
2019-01-03T11:03:59.583Z,103222.05
2019-01-03T11:06:30.382Z,103239.81
2019-01-03T11:09:00.055Z,103232.63
2019-01-03T11:11:30.273Z,103232.55
2019-01-03T11:13:59.917Z,103228.04
2019-01-03T11:16:30.382Z,103219.05
2019-01-03T11:19:00.066Z,103220.89
2019-01-03T11:21:30.400Z,103230.17
2019-01-03T11:24:00.046Z,103229.66
2019-01-03T11:26:30.328Z,103234.92
2019-01-03T11:29:00.048Z,103236.73
2019-01-03T11:31:30.348Z,103230.09
2019-01-03T11:33:59.705Z,103235.55
2019-01-03T11:36:30.508Z,103236.02
2019-01-03T11:39:00.010Z,103228.83
2019-01-03T11:41:30.363Z,103227.50
2019-01-03T11:44:00.053Z,103226.59
2019-01-03T11:46:30.380Z,103216.37
2019-01-03T11:49:00.015Z,103211.54
2019-01-03T11:51:30.462Z,103202.77
2019-01-03T11:57:45.925Z,103204.26
2019-01-03T12:00:15.283Z,103203.31
2019-01-03T12:02:44.621Z,103205.44
2019-01-03T12:05:14.517Z,103204.94
2019-01-03T12:07:44.437Z,103206.20
2019-01-03T12:10:14.073Z,103204.78
2019-01-03T12:12:43.411Z,103215.35
2019-01-03T12:15:13.035Z,103216.53
2019-01-03T12:17:42.659Z,103207.96
2019-01-03T12:20:12.578Z,103212.84
2019-01-03T12:22:42.207Z,103205.33
2019-01-03T12:25:11.547Z,103204.81
2019-01-03T12:27:41.433Z,103213.62
2019-01-03T12:30:11.060Z,103209.01
2019-01-03T12:32:40.451Z,103205.27
2019-01-03T12:37:53.581Z,103188.23
2019-01-03T12:40:35.649Z,103181.44
2019-01-03T12:43:17.577Z,103181.44
2019-01-03T12:45:59.581Z,103188.47
2019-01-03T12:48:30.542Z,103190.06
2019-01-03T12:51:00.240Z,103192.94
2019-01-03T12:53:30.660Z,103186.11
2019-01-03T12:56:01.649Z,103179.13
2019-01-03T12:58:30.970Z,103177.78
2019-01-03T13:01:00.320Z,103183.91
2019-01-03T13:03:30.542Z,103180.90
2019-01-03T13:06:00.199Z,103176.97
2019-01-03T13:08:30.628Z,103180.45
2019-01-03T13:11:12.680Z,103188.07
2019-01-03T13:13:43.183Z,103188.07
2019-01-03T13:16:12.600Z,103190.45
2019-01-03T13:19:01.903Z,103187.30
2019-01-03T13:24:25.499Z,103189.51
2019-01-03T13:26:54.854Z,103190.55
2019-01-03T13:29:45.174Z,103199.53
2019-01-03T13:32:14.525Z,103196.44
2019-01-03T13:34:51.322Z,103196.52
2019-01-03T13:37:26.484Z,103196.52
2019-01-03T13:39:55.812Z,103201.88
2019-01-03T13:42:25.313Z,103205.97
2019-01-03T13:44:54.640Z,103210.42
2019-01-03T13:47:24.278Z,103208.18
2019-01-03T13:49:53.608Z,103209.04
2019-01-03T13:52:22.971Z,103217.94
2019-01-03T13:54:52.504Z,103209.56
2019-01-03T13:57:21.841Z,103215.73
2019-01-03T13:59:51.485Z,103204.69
2019-01-03T14:02:20.813Z,103203.02
2019-01-03T14:04:50.343Z,103212.38
2019-01-03T14:07:19.686Z,103206.16
2019-01-03T14:10:01.535Z,103213.75
2019-01-03T14:12:30.953Z,103213.75
2019-01-03T14:15:19.750Z,103224.41
2019-01-03T14:17:49.464Z,103220.40
2019-01-03T14:20:18.792Z,103225.31
2019-01-03T14:23:01.106Z,103227.52
2019-01-03T14:25:43.559Z,103230.66
2019-01-03T14:28:12.968Z,103229.41
2019-01-03T14:30:42.918Z,103238.39
2019-01-03T14:33:24.563Z,103242.97
2019-01-03T14:36:06.255Z,103246.16
2019-01-03T14:38:48.166Z,103250.68
2019-01-03T14:41:29.963Z,103246.32
2019-01-03T14:43:59.717Z,103246.87
2019-01-03T14:46:29.088Z,103238.08
2019-01-03T14:48:58.597Z,103237.25
2019-01-03T14:51:27.971Z,103237.25
2019-01-03T14:53:57.484Z,103234.70
2019-01-03T14:56:26.832Z,103228.05
2019-01-03T14:58:56.472Z,103208.52
2019-01-03T15:01:25.814Z,103210.36
2019-01-03T15:03:55.760Z,103201.91
2019-01-03T15:06:25.365Z,103206.87
2019-01-03T15:08:54.704Z,103206.52
2019-01-03T15:11:24.029Z,103207.45
2019-01-03T15:13:53.889Z,103212.44
2019-01-03T15:16:23.509Z,103218.80
2019-01-03T15:18:52.883Z,103226.02
2019-01-03T15:21:22.509Z,103231.91
2019-01-03T15:23:52.087Z,103234.22
2019-01-03T15:26:42.452Z,103236.05
2019-01-03T15:29:11.805Z,103240.56
2019-01-03T15:31:41.429Z,103260.63
2019-01-03T15:34:10.779Z,103256.69
2019-01-03T15:39:28.575Z,103265.19
2019-01-03T15:41:57.908Z,103255.08
2019-01-03T15:44:27.795Z,103258.27
2019-01-03T15:46:57.412Z,103261.03
2019-01-03T15:49:39.555Z,103260.66
2019-01-03T15:52:21.112Z,103262.46
2019-01-03T15:55:02.959Z,103273.63
2019-01-03T15:57:45.023Z,103278.16
2019-01-03T16:00:27.448Z,103277.77
2019-01-03T16:02:56.836Z,103275.59
2019-01-03T16:05:26.180Z,103288.15
2019-01-03T16:08:08.101Z,103285.97
2019-01-03T16:10:50.070Z,103301.59
2019-01-03T16:13:32.031Z,103301.59
2019-01-03T16:16:13.552Z,103290.56
2019-01-03T16:18:43.208Z,103296.81
2019-01-03T16:21:12.869Z,103299.55
2019-01-03T16:23:42.256Z,103304.47
2019-01-03T16:26:11.695Z,103300.09
2019-01-03T16:28:41.064Z,103308.56
2019-01-03T16:31:10.693Z,103307.27
2019-01-03T16:33:40.644Z,103311.32
2019-01-03T16:36:09.976Z,103314.89
2019-01-03T16:38:39.616Z,103320.25
2019-01-03T16:41:09.110Z,103322.04
2019-01-03T16:43:39.285Z,103317.20
2019-01-03T16:46:08.928Z,103320.30
2019-01-03T16:48:38.521Z,103321.65
2019-01-03T16:51:07.868Z,103323.02
2019-01-03T16:53:37.210Z,103319.03
2019-01-03T16:56:06.804Z,103313.73
2019-01-03T16:58:36.552Z,103309.32
2019-01-03T17:01:06.036Z,103315.12
2019-01-03T17:03:35.378Z,103311.59
2019-01-03T17:06:04.920Z,103314.73
2019-01-03T17:08:36.041Z,103310.80
2019-01-03T17:11:05.690Z,103305.48
2019-01-03T17:13:35.038Z,103315.28
2019-01-03T17:16:04.380Z,103319.73
2019-01-03T17:18:34.001Z,103326.43
2019-01-03T17:21:03.351Z,103324.23
2019-01-03T17:23:32.963Z,103318.94
2019-01-03T17:26:02.305Z,103317.17
2019-01-03T17:28:31.879Z,103308.77
2019-01-03T17:31:01.220Z,103312.33
2019-01-03T17:33:31.261Z,103313.70
2019-01-03T17:36:01.017Z,103313.73
2019-01-03T17:38:31.260Z,103315.09
2019-01-03T17:41:00.941Z,103312.48
2019-01-03T17:43:31.313Z,103318.69
2019-01-03T17:46:00.958Z,103319.59
2019-01-03T17:48:31.389Z,103323.58
2019-01-03T17:51:13.592Z,103315.19
2019-01-03T17:53:55.518Z,103313.41
2019-01-03T17:56:37.735Z,103311.17
2019-01-03T17:59:19.486Z,103308.97
2019-01-03T18:01:59.197Z,103316.97
2019-01-03T18:04:28.546Z,103320.53
2019-01-03T18:06:58.114Z,103328.56
2019-01-03T18:09:29.105Z,103330.78
2019-01-03T18:11:58.455Z,103332.14
2019-01-03T18:14:27.970Z,103336.56
2019-01-03T18:16:57.307Z,103326.83
2019-01-03T18:19:26.935Z,103324.19
2019-01-03T18:21:56.266Z,103321.98
2019-01-03T18:24:25.889Z,103321.13
2019-01-03T18:26:55.231Z,103326.02
2019-01-03T18:29:24.852Z,103322.95
2019-01-03T18:31:54.205Z,103322.09
2019-01-03T18:34:23.767Z,103322.53
2019-01-03T18:36:53.148Z,103330.09
2019-01-03T18:39:22.527Z,103331.44
2019-01-03T18:41:52.007Z,103335.00
2019-01-03T18:44:21.388Z,103338.52
2019-01-03T18:46:51.066Z,103334.56
2019-01-03T18:49:20.435Z,103336.77
2019-01-03T18:51:50.056Z,103335.46
2019-01-03T18:54:19.770Z,103346.08
2019-01-03T18:56:49.104Z,103339.45
2019-01-03T18:59:18.452Z,103341.66
2019-01-03T19:01:48.388Z,103341.22
2019-01-03T19:04:17.719Z,103329.28
2019-01-03T19:06:47.606Z,103332.36
2019-01-03T19:09:17.169Z,103338.56
2019-01-03T19:11:46.492Z,103341.70
2019-01-03T19:14:16.441Z,103334.61
2019-01-03T19:16:46.357Z,103330.62
2019-01-03T19:19:15.737Z,103342.14
2019-01-03T19:21:45.330Z,103341.69
2019-01-03T19:24:14.755Z,103352.32
2019-01-03T19:29:46.960Z,103349.67
2019-01-03T19:32:16.322Z,103353.20
2019-01-03T19:34:45.661Z,103358.09
2019-01-03T19:37:15.022Z,103352.33
2019-01-03T19:39:54.587Z,103353.20
2019-01-03T19:42:24.522Z,103353.20
2019-01-03T19:44:53.857Z,103348.34
2019-01-03T19:47:23.469Z,103338.61
2019-01-03T19:49:53.045Z,103343.02
2019-01-03T19:52:22.630Z,103345.23
2019-01-03T19:54:51.987Z,103349.22
2019-01-03T19:57:21.415Z,103353.22
2019-01-03T19:59:50.777Z,103361.19
2019-01-03T20:02:20.418Z,103360.28
2019-01-03T20:04:49.761Z,103366.05
2019-01-03T20:07:19.342Z,103370.45
2019-01-03T20:09:48.719Z,103372.22
2019-01-03T20:12:18.395Z,103370.92
2019-01-03T20:14:47.751Z,103368.23
2019-01-03T20:17:17.380Z,103366.94
2019-01-03T20:19:47.023Z,103364.25
2019-01-03T20:22:16.602Z,103370.02
2019-01-03T20:24:45.952Z,103369.13
2019-01-03T20:27:15.471Z,103370.91
2019-01-03T20:29:44.833Z,103367.80
2019-01-03T20:32:14.469Z,103373.98
2019-01-03T20:34:44.119Z,103373.56
2019-01-03T20:37:13.709Z,103371.36
2019-01-03T20:39:43.114Z,103372.66
2019-01-03T20:42:12.596Z,103364.70
2019-01-03T20:44:41.975Z,103373.98
2019-01-03T20:47:11.612Z,103370.02
2019-01-03T20:49:41.321Z,103374.45
2019-01-03T20:52:12.573Z,103373.98
2019-01-03T20:54:41.938Z,103373.55
2019-01-03T20:57:11.547Z,103371.77
2019-01-03T20:59:42.827Z,103370.00
2019-01-03T21:02:12.464Z,103375.73
2019-01-03T21:04:41.826Z,103369.98
2019-01-03T21:07:11.166Z,103369.12
2019-01-03T21:09:40.565Z,103368.68
2019-01-03T21:12:09.901Z,103361.59
2019-01-03T21:14:39.260Z,103359.80
2019-01-03T21:17:08.797Z,103364.67
2019-01-03T21:19:38.143Z,103363.38
2019-01-03T21:22:07.720Z,103362.92
2019-01-03T21:24:37.052Z,103372.21
2019-01-03T21:27:06.657Z,103371.31
2019-01-03T21:29:36.084Z,103368.67
2019-01-03T21:32:05.989Z,103361.14
2019-01-03T21:34:35.645Z,103361.14
2019-01-03T21:37:05.050Z,103360.23
2019-01-03T21:39:34.694Z,103362.89
2019-01-03T21:42:04.040Z,103357.13
2019-01-03T21:44:52.658Z,103354.94
2019-01-03T21:47:21.992Z,103349.63
2019-01-03T21:49:51.344Z,103347.40
2019-01-03T21:52:20.803Z,103341.64
2019-01-03T21:54:50.216Z,103348.72
2019-01-03T21:57:19.785Z,103347.86
2019-01-03T22:03:03.179Z,103341.64
2019-01-03T22:05:45.377Z,103342.97
2019-01-03T22:08:27.355Z,103346.95
2019-01-03T22:11:09.178Z,103348.73
2019-01-03T22:13:38.881Z,103352.27
2019-01-03T22:16:27.573Z,103339.41
2019-01-03T22:19:08.803Z,103339.41
2019-01-03T22:21:51.061Z,103338.53
2019-01-03T22:24:33.117Z,103334.13
2019-01-03T22:27:15.096Z,103342.52
2019-01-03T22:29:58.498Z,103331.48
2019-01-03T22:32:41.405Z,103331.48
2019-01-03T22:35:23.788Z,103324.84
2019-01-03T22:38:05.733Z,103334.12
2019-01-03T22:40:48.038Z,103335.45
2019-01-03T22:43:29.574Z,103324.38
2019-01-03T22:46:11.074Z,103319.08
2019-01-03T22:51:45.353Z,103312.01
2019-01-03T22:54:27.066Z,103316.43
2019-01-03T22:57:08.769Z,103313.31
2019-01-03T22:59:50.995Z,103314.63
2019-01-03T23:02:32.853Z,103316.41
2019-01-03T23:05:14.410Z,103317.75
2019-01-03T23:07:56.569Z,103317.73
2019-01-03T23:10:26.114Z,103307.58
2019-01-03T23:12:55.788Z,103306.69
2019-01-03T23:15:25.129Z,103307.98
2019-01-03T23:17:54.806Z,103300.03
2019-01-03T23:20:24.154Z,103309.75
2019-01-03T23:22:53.521Z,103305.33
2019-01-03T23:25:22.983Z,103298.70
2019-01-03T23:27:52.330Z,103308.41
2019-01-03T23:30:21.974Z,103304.44
2019-01-03T23:32:51.312Z,103306.67
2019-01-03T23:35:20.955Z,103303.11
2019-01-03T23:38:11.287Z,103309.77
2019-01-03T23:40:40.854Z,103320.36
2019-01-03T23:43:10.209Z,103320.36
2019-01-03T23:45:39.858Z,103322.59
2019-01-03T23:48:09.221Z,103313.73
2019-01-03T23:53:19.258Z,103301.35
2019-01-03T23:56:09.532Z,103298.25
2019-01-03T23:58:39.176Z,103296.93
